sensor_id;sensor_type;location;lat;lon;timestamp;pressure;altitude;pressure_sealevel;temperature;humidity
15382;BME280;7789;51.364;12.358;2023-02-12T00:04:14;102200.41;;;8.75;100.00
15382;BME280;7789;51.364;12.358;2023-02-12T00:09:22;102206.34;;;8.78;100.00
15382;BME280;7789;51.364;12.358;2023-02-12T00:14:30;102201.22;;;8.75;100.00
15382;BME280;7789;51.364;12.358;2023-02-12T00:19:42;102203.91;;;8.74;100.00
15382;BME280;7789;51.364;12.358;2023-02-12T00:24:51;102198.72;;;8.74;100.00
15382;BME280;7789;51.364;12.358;2023-02-12T00:29:56;102190.13;;;8.72;100.00
15382;BME280;7789;51.364;12.358;2023-02-12T00:35:02;102189.19;;;8.73;100.00
15382;BME280;7789;51.364;12.358;2023-02-12T00:40:10;102196.09;;;8.74;100.00
15382;BME280;7789;51.364;12.358;2023-02-12T00:45:15;102205.53;;;8.76;100.00
15382;BME280;7789;51.364;12.358;2023-02-12T00:50:21;102202.16;;;8.74;100.00
15382;BME280;7789;51.364;12.358;2023-02-12T00:55:27;102216.81;;;8.77;100.00
15382;BME280;7789;51.364;12.358;2023-02-12T01:00:38;102216.88;;;8.75;100.00
15382;BME280;7789;51.364;12.358;2023-02-12T01:05:42;102225.50;;;8.77;100.00
15382;BME280;7789;51.364;12.358;2023-02-12T01:10:53;102224.44;;;8.81;100.00
15382;BME280;7789;51.364;12.358;2023-02-12T01:16:06;102220.41;;;8.74;100.00
15382;BME280;7789;51.364;12.358;2023-02-12T01:21:15;102226.47;;;8.75;100.00
15382;BME280;7789;51.364;12.358;2023-02-12T01:26:24;102230.72;;;8.77;100.00
15382;BME280;7789;51.364;12.358;2023-02-12T01:31:31;102225.50;;;8.77;100.00
15382;BME280;7789;51.364;12.358;2023-02-12T01:36:36;102229.81;;;8.78;100.00
15382;BME280;7789;51.364;12.358;2023-02-12T01:41:45;102228.09;;;8.77;100.00
15382;BME280;7789;51.364;12.358;2023-02-12T01:46:54;102224.50;;;8.80;100.00
15382;BME280;7789;51.364;12.358;2023-02-12T01:52:05;102217.44;;;8.82;100.00
15382;BME280;7789;51.364;12.358;2023-02-12T01:57:13;102226.91;;;8.84;100.00
15382;BME280;7789;51.364;12.358;2023-02-12T02:02:18;102223.38;;;8.85;100.00
15382;BME280;7789;51.364;12.358;2023-02-12T02:07:24;102223.38;;;8.85;100.00
15382;BME280;7789;51.364;12.358;2023-02-12T02:12:35;102228.44;;;8.88;100.00
15382;BME280;7789;51.364;12.358;2023-02-12T02:18:01;102220.72;;;8.87;100.00
15382;BME280;7789;51.364;12.358;2023-02-12T02:29:12;102221.50;;;8.89;100.00
15382;BME280;7789;51.364;12.358;2023-02-12T02:34:31;102217.25;;;8.86;100.00
15382;BME280;7789;51.364;12.358;2023-02-12T02:39:49;102215.56;;;8.85;100.00
15382;BME280;7789;51.364;12.358;2023-02-12T02:44:58;102209.44;;;8.86;100.00
15382;BME280;7789;51.364;12.358;2023-02-12T02:50:20;102210.34;;;8.85;100.00
15382;BME280;7789;51.364;12.358;2023-02-12T02:55:42;102216.47;;;8.84;100.00
15382;BME280;7789;51.364;12.358;2023-02-12T03:00:52;102211.25;;;8.84;100.00
15382;BME280;7789;51.364;12.358;2023-02-12T03:06:07;102225.13;;;8.85;100.00
15382;BME280;7789;51.364;12.358;2023-02-12T03:11:16;102224.25;;;8.86;100.00
15382;BME280;7789;51.364;12.358;2023-02-12T03:16:27;102226.03;;;8.84;100.00
15382;BME280;7789;51.364;12.358;2023-02-12T03:21:40;102236.38;;;8.87;100.00
15382;BME280;7789;51.364;12.358;2023-02-12T03:26:50;102240.56;;;8.89;100.00
15382;BME280;7789;51.364;12.358;2023-02-12T03:32:02;102243.91;;;8.93;100.00
15382;BME280;7789;51.364;12.358;2023-02-12T03:37:15;102247.34;;;8.93;100.00
15382;BME280;7789;51.364;12.358;2023-02-12T03:42:30;102250.19;;;8.89;100.00
15382;BME280;7789;51.364;12.358;2023-02-12T03:47:44;102264.75;;;8.93;100.00
15382;BME280;7789;51.364;12.358;2023-02-12T03:52:52;102263.84;;;8.94;100.00
15382;BME280;7789;51.364;12.358;2023-02-12T03:58:00;102264.63;;;8.96;100.00
15382;BME280;7789;51.364;12.358;2023-02-12T04:03:06;102274.22;;;8.95;100.00
15382;BME280;7789;51.364;12.358;2023-02-12T04:08:15;102271.53;;;8.97;100.00
15382;BME280;7789;51.364;12.358;2023-02-12T04:13:24;102277.59;;;8.97;100.00
15382;BME280;7789;51.364;12.358;2023-02-12T04:18:34;102282.88;;;8.96;100.00
15382;BME280;7789;51.364;12.358;2023-02-12T04:23:57;102295.88;;;8.97;100.00
15382;BME280;7789;51.364;12.358;2023-02-12T04:29:17;102304.53;;;8.98;100.00
15382;BME280;7789;51.364;12.358;2023-02-12T04:34:33;102299.31;;;8.98;100.00
15382;BME280;7789;51.364;12.358;2023-02-12T04:39:46;102300.06;;;9.00;100.00
15382;BME280;7789;51.364;12.358;2023-02-12T04:44:53;102306.16;;;9.00;100.00
15382;BME280;7789;51.364;12.358;2023-02-12T04:50:02;102317.41;;;9.01;100.00
15382;BME280;7789;51.364;12.358;2023-02-12T04:55:09;102311.44;;;8.99;100.00
15382;BME280;7789;51.364;12.358;2023-02-12T05:00:16;102309.69;;;8.99;100.00
15382;BME280;7789;51.364;12.358;2023-02-12T05:05:20;102317.41;;;9.01;100.00
15382;BME280;7789;51.364;12.358;2023-02-12T05:10:27;102310.47;;;9.01;100.00
15382;BME280;7789;51.364;12.358;2023-02-12T05:15:32;102313.91;;;9.02;100.00
15382;BME280;7789;51.364;12.358;2023-02-12T05:20:36;102306.97;;;9.01;100.00
15382;BME280;7789;51.364;12.358;2023-02-12T05:25:42;102301.78;;;9.01;100.00
15382;BME280;7789;51.364;12.358;2023-02-12T05:30:46;102308.75;;;9.00;100.00
15382;BME280;7789;51.364;12.358;2023-02-12T05:35:52;102324.41;;;9.00;100.00
15382;BME280;7789;51.364;12.358;2023-02-12T05:41:02;102317.38;;;9.02;100.00
15382;BME280;7789;51.364;12.358;2023-02-12T05:46:11;102307.84;;;9.01;100.00
15382;BME280;7789;51.364;12.358;2023-02-12T05:51:17;102320.88;;;9.01;100.00
15382;BME280;7789;51.364;12.358;2023-02-12T05:56:30;102328.72;;;9.01;100.00
15382;BME280;7789;51.364;12.358;2023-02-12T06:01:36;102328.66;;;9.03;100.00
15382;BME280;7789;51.364;12.358;2023-02-12T06:06:41;102330.41;;;9.02;100.00
15382;BME280;7789;51.364;12.358;2023-02-12T06:11:47;102327.84;;;9.01;100.00
15382;BME280;7789;51.364;12.358;2023-02-12T06:16:53;102338.22;;;9.02;100.00
15382;BME280;7789;51.364;12.358;2023-02-12T06:21:58;102344.38;;;9.01;100.00
15382;BME280;7789;51.364;12.358;2023-02-12T06:27:03;102353.84;;;9.04;100.00
15382;BME280;7789;51.364;12.358;2023-02-12T06:32:09;102353.84;;;9.04;100.00
15382;BME280;7789;51.364;12.358;2023-02-12T06:37:14;102361.66;;;9.04;100.00
15382;BME280;7789;51.364;12.358;2023-02-12T06:42:20;102366.00;;;9.03;100.00
15382;BME280;7789;51.364;12.358;2023-02-12T06:47:30;102372.91;;;9.04;100.00
15382;BME280;7789;51.364;12.358;2023-02-12T06:52:34;102379.84;;;9.05;100.00
15382;BME280;7789;51.364;12.358;2023-02-12T06:57:40;102377.22;;;9.05;100.00
15382;BME280;7789;51.364;12.358;2023-02-12T07:02:51;102386.75;;;9.06;100.00
15382;BME280;7789;51.364;12.358;2023-02-12T07:08:00;102380.69;;;9.06;100.00
15382;BME280;7789;51.364;12.358;2023-02-12T07:13:10;102391.91;;;9.08;100.00
15382;BME280;7789;51.364;12.358;2023-02-12T07:18:23;102405.72;;;9.10;100.00
15382;BME280;7789;51.364;12.358;2023-02-12T07:23:28;102407.28;;;9.13;100.00
15382;BME280;7789;51.364;12.358;2023-02-12T07:28:36;102407.91;;;9.18;100.00
15382;BME280;7789;51.364;12.358;2023-02-12T07:33:44;102408.72;;;9.20;100.00
15382;BME280;7789;51.364;12.358;2023-02-12T07:38:50;102416.56;;;9.20;100.00
15382;BME280;7789;51.364;12.358;2023-02-12T07:44:01;102425.16;;;9.22;100.00
15382;BME280;7789;51.364;12.358;2023-02-12T07:49:14;102433.91;;;9.21;100.00
15382;BME280;7789;51.364;12.358;2023-02-12T07:54:22;102428.75;;;9.20;100.00
15382;BME280;7789;51.364;12.358;2023-02-12T07:59:37;102433.81;;;9.23;100.00
15382;BME280;7789;51.364;12.358;2023-02-12T08:04:44;102445.81;;;9.27;100.00
15382;BME280;7789;51.364;12.358;2023-02-12T08:09:52;102446.72;;;9.26;100.00
15382;BME280;7789;51.364;12.358;2023-02-12T08:15:03;102444.84;;;9.29;100.00
15382;BME280;7789;51.364;12.358;2023-02-12T08:20:14;102446.41;;;9.33;100.00
15382;BME280;7789;51.364;12.358;2023-02-12T08:25:23;102444.56;;;9.35;100.00
15382;BME280;7789;51.364;12.358;2023-02-12T08:30:37;102449.78;;;9.35;100.00
15382;BME280;7789;51.364;12.358;2023-02-12T08:35:45;102454.03;;;9.38;100.00
15382;BME280;7789;51.364;12.358;2023-02-12T08:40:49;102468.66;;;9.42;100.00
15382;BME280;7789;51.364;12.358;2023-02-12T08:46:00;102461.34;;;9.50;100.00
15382;BME280;7789;51.364;12.358;2023-02-12T08:51:07;102461.16;;;9.54;100.00
15382;BME280;7789;51.364;12.358;2023-02-12T08:56:15;102459.91;;;9.63;100.00
15382;BME280;7789;51.364;12.358;2023-02-12T09:01:31;102464.63;;;9.73;100.00
15382;BME280;7789;51.364;12.358;2023-02-12T09:06:41;102470.44;;;9.80;100.00
15382;BME280;7789;51.364;12.358;2023-02-12T09:11:56;102476.94;;;9.90;100.00
15382;BME280;7789;51.364;12.358;2023-02-12T09:17:28;102475.50;;;10.03;100.00
15382;BME280;7789;51.364;12.358;2023-02-12T09:22:39;102487.34;;;10.10;100.00
15382;BME280;7789;51.364;12.358;2023-02-12T09:27:47;102491.44;;;10.15;100.00
15382;BME280;7789;51.364;12.358;2023-02-12T09:33:00;102494.44;;;10.26;100.00
15382;BME280;7789;51.364;12.358;2023-02-12T09:38:15;102498.59;;;10.30;100.00
15382;BME280;7789;51.364;12.358;2023-02-12T09:43:26;102506.38;;;10.32;100.00
15382;BME280;7789;51.364;12.358;2023-02-12T09:48:53;102513.91;;;10.38;100.00
15382;BME280;7789;51.364;12.358;2023-02-12T09:54:03;102510.44;;;10.37;100.00
15382;BME280;7789;51.364;12.358;2023-02-12T09:59:15;102515.59;;;10.39;100.00
15382;BME280;7789;51.364;12.358;2023-02-12T10:04:55;102523.41;;;10.40;100.00
15382;BME280;7789;51.364;12.358;2023-02-12T10:10:18;102521.63;;;10.41;100.00
15382;BME280;7789;51.364;12.358;2023-02-12T10:15:34;102519.84;;;10.41;100.00
15382;BME280;7789;51.364;12.358;2023-02-12T10:21:06;102520.13;;;10.54;100.00
15382;BME280;7789;51.364;12.358;2023-02-12T10:26:20;102525.34;;;10.54;100.00
15382;BME280;7789;51.364;12.358;2023-02-12T10:31:37;102525.91;;;10.60;100.00
15382;BME280;7789;51.364;12.358;2023-02-12T10:37:16;102516.03;;;10.67;100.00
15382;BME280;7789;51.364;12.358;2023-02-12T10:42:40;102519.81;;;10.78;100.00
15382;BME280;7789;51.364;12.358;2023-02-12T10:47:46;102515.13;;;10.85;100.00
15382;BME280;7789;51.364;12.358;2023-02-12T10:53:16;102510.94;;;10.81;100.00
15382;BME280;7789;51.364;12.358;2023-02-12T10:58:29;102512.78;;;10.79;100.00
15382;BME280;7789;51.364;12.358;2023-02-12T11:03:40;102505.13;;;10.93;100.00
15382;BME280;7789;51.364;12.358;2023-02-12T11:08:52;102503.13;;;11.14;100.00
15382;BME280;7789;51.364;12.358;2023-02-12T11:14:03;102501.53;;;11.29;100.00
15382;BME280;7789;51.364;12.358;2023-02-12T11:19:26;102497.22;;;11.28;100.00
15382;BME280;7789;51.364;12.358;2023-02-12T11:24:59;102505.38;;;11.22;100.00
15382;BME280;7789;51.364;12.358;2023-02-12T11:30:18;102495.69;;;11.24;100.00
15382;BME280;7789;51.364;12.358;2023-02-12T11:35:26;102493.97;;;11.23;100.00
15382;BME280;7789;51.364;12.358;2023-02-12T11:40:45;102493.34;;;11.35;100.00
15382;BME280;7789;51.364;12.358;2023-02-12T11:46:02;102498.97;;;11.44;100.00
15382;BME280;7789;51.364;12.358;2023-02-12T11:51:17;102488.59;;;11.43;100.00
15382;BME280;7789;51.364;12.358;2023-02-12T11:56:41;102488.34;;;11.47;100.00
15382;BME280;7789;51.364;12.358;2023-02-12T12:01:59;102478.66;;;11.49;100.00
15382;BME280;7789;51.364;12.358;2023-02-12T12:07:15;102483.03;;;11.49;100.00
15382;BME280;7789;51.364;12.358;2023-02-12T12:12:40;102493.06;;;11.41;100.00
15382;BME280;7789;51.364;12.358;2023-02-12T12:18:08;102496.91;;;11.34;100.00
15382;BME280;7789;51.364;12.358;2023-02-12T12:23:39;102490.97;;;11.30;100.00
15382;BME280;7789;51.364;12.358;2023-02-12T12:28:58;102493.44;;;11.33;100.00
15382;BME280;7789;51.364;12.358;2023-02-12T12:34:12;102493.59;;;11.30;100.00
15382;BME280;7789;51.364;12.358;2023-02-12T12:39:26;102492.53;;;11.34;100.00
15382;BME280;7789;51.364;12.358;2023-02-12T12:44:48;102477.47;;;11.38;100.00
15382;BME280;7789;51.364;12.358;2023-02-12T12:50:16;102480.25;;;11.35;100.00
15382;BME280;7789;51.364;12.358;2023-02-12T13:01:29;102466.63;;;11.28;100.00
15382;BME280;7789;51.364;12.358;2023-02-12T13:06:48;102483.38;;;11.26;100.00
15382;BME280;7789;51.364;12.358;2023-02-12T13:12:12;102476.72;;;11.19;100.00
15382;BME280;7789;51.364;12.358;2023-02-12T13:17:32;102469.09;;;11.14;100.00
15382;BME280;7789;51.364;12.358;2023-02-12T13:22:52;102456.88;;;11.15;100.00
15382;BME280;7789;51.364;12.358;2023-02-12T13:28:01;102467.13;;;11.19;100.00
15382;BME280;7789;51.364;12.358;2023-02-12T13:33:15;102463.25;;;11.26;100.00
15382;BME280;7789;51.364;12.358;2023-02-12T13:38:32;102468.31;;;11.29;100.00
15382;BME280;7789;51.364;12.358;2023-02-12T13:44:03;102457.56;;;11.35;100.00
15382;BME280;7789;51.364;12.358;2023-02-12T13:49:25;102450.09;;;11.28;100.00
15382;BME280;7789;51.364;12.358;2023-02-12T13:54:48;102460.63;;;11.26;100.00
15382;BME280;7789;51.364;12.358;2023-02-12T14:00:05;102457.84;;;11.29;100.00
15382;BME280;7789;51.364;12.358;2023-02-12T14:05:32;102456.16;;;11.28;100.00
15382;BME280;7789;51.364;12.358;2023-02-12T14:10:44;102463.25;;;11.26;100.00
15382;BME280;7789;51.364;12.358;2023-02-12T14:16:23;102453.47;;;11.30;100.00
15382;BME280;7789;51.364;12.358;2023-02-12T14:21:40;102459.63;;;11.29;100.00
15382;BME280;7789;51.364;12.358;2023-02-12T14:26:49;102464.72;;;11.32;100.00
15382;BME280;7789;51.364;12.358;2023-02-12T14:32:01;102461.34;;;11.30;100.00
15382;BME280;7789;51.364;12.358;2023-02-12T14:37:31;102457.84;;;11.29;100.00
15382;BME280;7789;51.364;12.358;2023-02-12T14:42:53;102452.06;;;11.23;100.00
15382;BME280;7789;51.364;12.358;2023-02-12T14:48:03;102449.03;;;11.15;100.00
15382;BME280;7789;51.364;12.358;2023-02-12T14:53:25;102453.25;;;11.17;100.00
15382;BME280;7789;51.364;12.358;2023-02-12T14:58:34;102459.50;;;11.15;100.00
15382;BME280;7789;51.364;12.358;2023-02-12T15:03:47;102459.44;;;11.16;100.00
15382;BME280;7789;51.364;12.358;2023-02-12T15:09:06;102463.81;;;11.16;100.00
15382;BME280;7789;51.364;12.358;2023-02-12T15:14:16;102466.59;;;11.13;100.00
15382;BME280;7789;51.364;12.358;2023-02-12T15:19:38;102466.81;;;11.08;100.00
15382;BME280;7789;51.364;12.358;2023-02-12T15:24:52;102467.72;;;11.07;100.00
15382;BME280;7789;51.364;12.358;2023-02-12T15:30:01;102466.97;;;11.05;100.00
15382;BME280;7789;51.364;12.358;2023-02-12T15:35:19;102475.75;;;11.04;100.00
15382;BME280;7789;51.364;12.358;2023-02-12T15:40:33;102471.50;;;11.02;100.00
15382;BME280;7789;51.364;12.358;2023-02-12T15:45:38;102474.28;;;10.99;100.00
15382;BME280;7789;51.364;12.358;2023-02-12T15:50:52;102477.19;;;10.93;100.00
15382;BME280;7789;51.364;12.358;2023-02-12T15:56:03;102478.25;;;10.89;100.00
15382;BME280;7789;51.364;12.358;2023-02-12T16:01:14;102482.88;;;10.84;100.00
15382;BME280;7789;51.364;12.358;2023-02-12T16:06:25;102481.19;;;10.83;100.00
15382;BME280;7789;51.364;12.358;2023-02-12T16:11:46;102490.88;;;10.81;100.00
15382;BME280;7789;51.364;12.358;2023-02-12T16:16:54;102484.16;;;10.76;100.00
15382;BME280;7789;51.364;12.358;2023-02-12T16:22:11;102488.63;;;10.74;100.00
15382;BME280;7789;51.364;12.358;2023-02-12T16:27:23;102483.63;;;10.69;100.00
15382;BME280;7789;51.364;12.358;2023-02-12T16:32:41;102487.38;;;10.64;100.00
15382;BME280;7789;51.364;12.358;2023-02-12T16:37:59;102499.75;;;10.60;100.00
15382;BME280;7789;51.364;12.358;2023-02-12T16:43:25;102499.75;;;10.60;100.00
15382;BME280;7789;51.364;12.358;2023-02-12T16:48:37;102510.75;;;10.50;100.00
15382;BME280;7789;51.364;12.358;2023-02-12T16:53:47;102512.50;;;10.49;100.00
15382;BME280;7789;51.364;12.358;2023-02-12T16:59:00;102508.19;;;10.48;100.00
15382;BME280;7789;51.364;12.358;2023-02-12T17:04:13;102514.34;;;10.47;100.00
15382;BME280;7789;51.364;12.358;2023-02-12T17:09:20;102518.03;;;10.43;100.00
15382;BME280;7789;51.364;12.358;2023-02-12T17:14:26;102513.63;;;10.44;100.00
15382;BME280;7789;51.364;12.358;2023-02-12T17:19:30;102518.94;;;10.42;100.00
15382;BME280;7789;51.364;12.358;2023-02-12T17:24:33;102517.31;;;10.40;100.00
15382;BME280;7789;51.364;12.358;2023-02-12T17:29:40;102523.50;;;10.37;100.00
15382;BME280;7789;51.364;12.358;2023-02-12T17:34:45;102525.50;;;10.32;100.00
15382;BME280;7789;51.364;12.358;2023-02-12T17:39:56;102520.22;;;10.34;100.00
15382;BME280;7789;51.364;12.358;2023-02-12T17:45:07;102524.53;;;10.35;100.00
15382;BME280;7789;51.364;12.358;2023-02-12T17:50:12;102528.88;;;10.34;100.00
15382;BME280;7789;51.364;12.358;2023-02-12T17:55:24;102528.06;;;10.34;100.00
15382;BME280;7789;51.364;12.358;2023-02-12T18:00:35;102520.38;;;10.31;100.00
15382;BME280;7789;51.364;12.358;2023-02-12T18:05:43;102521.19;;;10.31;100.00
15382;BME280;7789;51.364;12.358;2023-02-12T18:10:54;102527.34;;;10.30;100.00
15382;BME280;7789;51.364;12.358;2023-02-12T18:16:05;102518.53;;;10.33;100.00
15382;BME280;7789;51.364;12.358;2023-02-12T18:21:13;102515.03;;;10.32;100.00
15382;BME280;7789;51.364;12.358;2023-02-12T18:26:33;102520.38;;;10.31;100.00
15382;BME280;7789;51.364;12.358;2023-02-12T18:31:43;102510.75;;;10.31;100.00
15382;BME280;7789;51.364;12.358;2023-02-12T18:36:54;102517.94;;;10.26;100.00
15382;BME280;7789;51.364;12.358;2023-02-12T18:41:58;102515.25;;;10.28;100.00
15382;BME280;7789;51.364;12.358;2023-02-12T18:47:06;102518.72;;;10.28;100.00
15382;BME280;7789;51.364;12.358;2023-02-12T18:52:14;102520.63;;;10.25;100.00
15382;BME280;7789;51.364;12.358;2023-02-12T18:57:18;102513.56;;;10.27;100.00
15382;BME280;7789;51.364;12.358;2023-02-12T19:02:25;102522.47;;;10.23;100.00
15382;BME280;7789;51.364;12.358;2023-02-12T19:07:29;102513.84;;;10.21;100.00
15382;BME280;7789;51.364;12.358;2023-02-12T19:12:34;102517.22;;;10.23;100.00
15382;BME280;7789;51.364;12.358;2023-02-12T19:17:46;102517.22;;;10.23;100.00
15382;BME280;7789;51.364;12.358;2023-02-12T19:22:50;102522.59;;;10.20;100.00
15382;BME280;7789;51.364;12.358;2023-02-12T19:28:06;102514.00;;;10.18;100.00
15382;BME280;7789;51.364;12.358;2023-02-12T19:33:11;102526.28;;;10.16;100.00
15382;BME280;7789;51.364;12.358;2023-02-12T19:38:17;102523.59;;;10.17;100.00
15382;BME280;7789;51.364;12.358;2023-02-12T19:43:46;102526.19;;;10.17;100.00
15382;BME280;7789;51.364;12.358;2023-02-12T19:48:59;102514.91;;;10.17;100.00
15382;BME280;7789;51.364;12.358;2023-02-12T19:54:05;102502.91;;;10.13;100.00
15382;BME280;7789;51.364;12.358;2023-02-12T19:59:31;102511.63;;;10.12;100.00
15382;BME280;7789;51.364;12.358;2023-02-12T20:04:56;102514.25;;;10.12;100.00
15382;BME280;7789;51.364;12.358;2023-02-12T20:10:03;102522.25;;;10.09;100.00
15382;BME280;7789;51.364;12.358;2023-02-12T20:15:08;102533.47;;;10.11;100.00
15382;BME280;7789;51.364;12.358;2023-02-12T20:20:19;102526.63;;;10.08;100.00
15382;BME280;7789;51.364;12.358;2023-02-12T20:25:24;102527.31;;;10.12;100.00
15382;BME280;7789;51.364;12.358;2023-02-12T20:30:28;102528.19;;;10.12;100.00
15382;BME280;7789;51.364;12.358;2023-02-12T20:35:33;102516.09;;;10.10;100.00
15382;BME280;7789;51.364;12.358;2023-02-12T20:40:37;102525.63;;;10.11;100.00
15382;BME280;7789;51.364;12.358;2023-02-12T20:45:41;102524.78;;;10.10;100.00
15382;BME280;7789;51.364;12.358;2023-02-12T20:56:39;102515.25;;;10.09;100.00
15382;BME280;7789;51.364;12.358;2023-02-12T21:01:45;102513.47;;;10.10;100.00
15382;BME280;7789;51.364;12.358;2023-02-12T21:06:48;102524.03;;;10.08;100.00
15382;BME280;7789;51.364;12.358;2023-02-12T21:11:54;102528.34;;;10.09;100.00
15382;BME280;7789;51.364;12.358;2023-02-12T21:17:03;102531.88;;;10.08;100.00
15382;BME280;7789;51.364;12.358;2023-02-12T21:22:08;102531.19;;;10.03;100.00
15382;BME280;7789;51.364;12.358;2023-02-12T21:27:19;102529.44;;;10.04;100.00
15382;BME280;7789;51.364;12.358;2023-02-12T21:32:25;102540.00;;;10.01;100.00
15382;BME280;7789;51.364;12.358;2023-02-12T21:37:37;102533.91;;;10.00;100.00
15382;BME280;7789;51.364;12.358;2023-02-12T21:42:49;102530.53;;;9.98;100.00
15382;BME280;7789;51.364;12.358;2023-02-12T21:47:57;102527.28;;;9.93;100.00
15382;BME280;7789;51.364;12.358;2023-02-12T21:53:04;102522.97;;;9.92;100.00
15382;BME280;7789;51.364;12.358;2023-02-12T21:58:10;102532.66;;;9.90;100.00
15382;BME280;7789;51.364;12.358;2023-02-12T22:03:14;102526.66;;;9.88;100.00
15382;BME280;7789;51.364;12.358;2023-02-12T22:08:26;102526.66;;;9.88;100.00
15382;BME280;7789;51.364;12.358;2023-02-12T22:13:33;102531.16;;;9.85;100.00
15382;BME280;7789;51.364;12.358;2023-02-12T22:18:39;102536.38;;;9.85;100.00
15382;BME280;7789;51.364;12.358;2023-02-12T22:23:46;102534.59;;;9.85;100.00
15382;BME280;7789;51.364;12.358;2023-02-12T22:29:01;102536.28;;;9.86;100.00
15382;BME280;7789;51.364;12.358;2023-02-12T22:34:11;102531.94;;;9.87;100.00
15382;BME280;7789;51.364;12.358;2023-02-12T22:39:17;102535.47;;;9.86;100.00
15382;BME280;7789;51.364;12.358;2023-02-12T22:44:34;102538.22;;;9.83;100.00
15382;BME280;7789;51.364;12.358;2023-02-12T22:49:40;102535.59;;;9.83;100.00
15382;BME280;7789;51.364;12.358;2023-02-12T22:54:46;102539.91;;;9.84;100.00
15382;BME280;7789;51.364;12.358;2023-02-12T22:59:54;102543.44;;;9.83;100.00
15382;BME280;7789;51.364;12.358;2023-02-12T23:05:00;102539.13;;;9.82;100.00
15382;BME280;7789;51.364;12.358;2023-02-12T23:10:07;102538.25;;;9.81;100.00
15382;BME280;7789;51.364;12.358;2023-02-12T23:15:15;102547.03;;;9.80;100.00
15382;BME280;7789;51.364;12.358;2023-02-12T23:20:21;102539.31;;;9.77;100.00
15382;BME280;7789;51.364;12.358;2023-02-12T23:25:25;102542.06;;;9.74;100.00
15382;BME280;7789;51.364;12.358;2023-02-12T23:30:33;102538.59;;;9.74;100.00
15382;BME280;7789;51.364;12.358;2023-02-12T23:35:39;102545.66;;;9.72;100.00
15382;BME280;7789;51.364;12.358;2023-02-12T23:40:43;102544.00;;;9.69;100.00
15382;BME280;7789;51.364;12.358;2023-02-12T23:45:49;102531.81;;;9.70;100.00
15382;BME280;7789;51.364;12.358;2023-02-12T23:50:54;102544.09;;;9.68;100.00
15382;BME280;7789;51.364;12.358;2023-02-12T23:55:58;102538.88;;;9.68;100.00
